地図

経路データ

SID SEASON NUMBER BASIN SUBBASIN NAME ISO_TIME NATURE LAT LON WMO_WIND WMO_PRES WMO_AGENCY TRACK_TYPE DIST2LAND LANDFALL IFLAG USA_AGENCY USA_ATCF_ID USA_LAT USA_LON USA_RECORD USA_STATUS USA_WIND USA_PRES USA_SSHS USA_R34_NE USA_R34_SE USA_R34_SW USA_R34_NW USA_R50_NE USA_R50_SE USA_R50_SW USA_R50_NW USA_R64_NE USA_R64_SE USA_R64_SW USA_R64_NW USA_POCI USA_ROCI USA_RMW USA_EYE TOKYO_LAT TOKYO_LON TOKYO_GRADE TOKYO_WIND TOKYO_PRES TOKYO_R50_DIR TOKYO_R50_LONG TOKYO_R50_SHORT TOKYO_R30_DIR TOKYO_R30_LONG TOKYO_R30_SHORT TOKYO_LAND CMA_LAT CMA_LON CMA_CAT CMA_WIND CMA_PRES HKO_LAT HKO_LON HKO_CAT HKO_WIND HKO_PRES NEWDELHI_LAT NEWDELHI_LON NEWDELHI_GRADE NEWDELHI_WIND NEWDELHI_PRES NEWDELHI_CI NEWDELHI_DP NEWDELHI_POCI REUNION_LAT REUNION_LON REUNION_TYPE REUNION_WIND REUNION_PRES REUNION_TNUM REUNION_CI REUNION_RMW REUNION_R34_NE REUNION_R34_SE REUNION_R34_SW REUNION_R34_NW REUNION_R50_NE REUNION_R50_SE REUNION_R50_SW REUNION_R50_NW REUNION_R64_NE REUNION_R64_SE REUNION_R64_SW REUNION_R64_NW BOM_LAT BOM_LON BOM_TYPE BOM_WIND BOM_PRES BOM_TNUM BOM_CI BOM_RMW BOM_R34_NE BOM_R34_SE BOM_R34_SW BOM_R34_NW BOM_R50_NE BOM_R50_SE BOM_R50_SW BOM_R50_NW BOM_R64_NE BOM_R64_SE BOM_R64_SW BOM_R64_NW BOM_ROCI BOM_POCI BOM_EYE BOM_POS_METHOD BOM_PRES_METHOD NADI_LAT NADI_LON NADI_CAT NADI_WIND NADI_PRES WELLINGTON_LAT WELLINGTON_LON WELLINGTON_WIND WELLINGTON_PRES DS824_LAT DS824_LON DS824_STAGE DS824_WIND DS824_PRES TD9636_LAT TD9636_LON TD9636_STAGE TD9636_WIND TD9636_PRES TD9635_LAT TD9635_LON TD9635_WIND TD9635_PRES TD9635_ROCI NEUMANN_LAT NEUMANN_LON NEUMANN_CLASS NEUMANN_WIND NEUMANN_PRES MLC_LAT MLC_LON MLC_CLASS MLC_WIND MLC_PRES USA_GUST BOM_GUST BOM_GUST_PER REUNION_GUST REUNION_GUST_PER USA_SEAHGT USA_SEARAD_NE USA_SEARAD_SE USA_SEARAD_SW USA_SEARAD_NW STORM_SPEED STORM_DIR
1901313S10068 1902 45 SI MM NOT_NAMED 1901-11-09 00:00:00 TS -9.50000 67.7000 main 1600 1577 _________O____ -1 -9.50000 67.7000 TC 5 250
1901313S10068 1902 45 SI MM NOT_NAMED 1901-11-09 03:00:00 TS -9.59004 67.4475 main 1570 1547 _________P____ -1 -9.59004 67.4475 TC 5 248
1901313S10068 1902 45 SI MM NOT_NAMED 1901-11-09 06:00:00 TS -9.70000 67.2000 main 1547 1524 _________O____ -1 -9.70000 67.2000 TC 5 242
1901313S10068 1902 45 SI MM NOT_NAMED 1901-11-09 09:00:00 TS -9.84246 66.9575 main 1524 1486 _________P____ -1 -9.84246 66.9575 TC 6 239
1901313S10068 1902 45 SI MM NOT_NAMED 1901-11-09 12:00:00 TS -10.0000 66.7000 main 1486 1457 _________O____ -1 -10.0000 66.7000 TC 6 241
1901313S10068 1902 45 SI MM NOT_NAMED 1901-11-09 15:00:00 TS -10.1500 66.4000 main 1448 1419 _________P____ -1 -10.1500 66.4000 TC 7 243
1901313S10068 1902 45 SI MM NOT_NAMED 1901-11-09 18:00:00 TS -10.3000 66.1000 main 1419 1396 _________O____ -1 -10.3000 66.1000 TC 6 241
1901313S10068 1902 45 SI MM NOT_NAMED 1901-11-09 21:00:00 TS -10.4500 65.8425 main 1390 1358 _________P____ -1 -10.4500 65.8425 TC 6 239
1901313S10068 1902 45 SI MM NOT_NAMED 1901-11-10 00:00:00 TS -10.6000 65.6000 main 1358 1336 _________O____ -1 -10.6000 65.6000 TC 6 239
1901313S10068 1902 45 SI MM NOT_NAMED 1901-11-10 03:00:00 TS -10.7500 65.3425 main 1330 1299 _________P____ -1 -10.7500 65.3425 TC 6 239
1901313S10068 1902 45 SI MM NOT_NAMED 1901-11-10 06:00:00 TS -10.9000 65.1000 main 1299 1277 _________O____ -1 -10.9000 65.1000 TC 5 235
1901313S10068 1902 45 SI MM NOT_NAMED 1901-11-10 09:00:00 TS -11.0499 64.9074 main 1277 1246 _________P____ -1 -11.0499 64.9074 TC 5 232
1901313S10068 1902 45 SI MM NOT_NAMED 1901-11-10 12:00:00 TS -11.2000 64.7000 main 1246 1218 _________O____ -1 -11.2000 64.7000 TC 6 239
1901313S10068 1902 45 SI MM NOT_NAMED 1901-11-10 15:00:00 TS -11.3500 64.4075 main 1208 1180 _________P____ -1 -11.3500 64.4075 TC 7 243
1901313S10068 1902 45 SI MM NOT_NAMED 1901-11-10 18:00:00 TS -11.5000 64.1000 main 1180 1159 _________O____ -1 -11.5000 64.1000 TC 6 242
1901313S10068 1902 45 SI MM NOT_NAMED 1901-11-10 21:00:00 TS -11.6500 63.8425 main 1153 1122 _________P____ -1 -11.6500 63.8425 TC 6 238
1901313S10068 1902 45 SI MM NOT_NAMED 1901-11-11 00:00:00 TS -11.8000 63.6000 main 1122 1101 _________O____ -1 -11.8000 63.6000 TC 6 238
1901313S10068 1902 45 SI MM NOT_NAMED 1901-11-11 03:00:00 TS -11.9500 63.3500 main 1095 1064 _________P____ -1 -11.9500 63.3500 TC 6 238
1901313S10068 1902 45 SI MM NOT_NAMED 1901-11-11 06:00:00 TS -12.1000 63.1000 main 1064 1043 _________O____ -1 -12.1000 63.1000 TC 6 238
1901313S10068 1902 45 SI MM NOT_NAMED 1901-11-11 09:00:00 TS -12.2500 62.8500 main 1038 1007 _________P____ -1 -12.2500 62.8500 TC 6 238
1901313S10068 1902 45 SI MM NOT_NAMED 1901-11-11 12:00:00 TS -12.4000 62.6000 main 1007 987 _________O____ -1 -12.4000 62.6000 TC 6 239
1901313S10068 1902 45 SI MM NOT_NAMED 1901-11-11 15:00:00 TS -12.5500 62.3425 main 981 951 _________P____ -1 -12.5500 62.3425 TC 6 238
1901313S10068 1902 45 SI MM NOT_NAMED 1901-11-11 18:00:00 TS -12.7000 62.1000 main 951 931 _________O____ -1 -12.7000 62.1000 TC 5 235
1901313S10068 1902 45 SI MM NOT_NAMED 1901-11-11 21:00:00 TS -12.8349 61.9223 main 931 901 _________P____ -1 -12.8349 61.9223 TC 5 232
1901313S10068 1902 45 SI MM NOT_NAMED 1901-11-12 00:00:00 TS -13.0000 61.7000 main 901 862 _________O____ -1 -13.0000 61.7000 TC 7 236
1901313S10068 1902 45 SI MM NOT_NAMED 1901-11-12 03:00:00 TS -13.2351 61.3226 main 862 813 _________P____ -1 -13.2351 61.3226 TC 9 237
1901313S10068 1902 45 SI MM NOT_NAMED 1901-11-12 06:00:00 TS -13.5000 60.9000 main 813 779 _________O____ -1 -13.5000 60.9000 TC 9 235
1901313S10068 1902 45 SI MM NOT_NAMED 1901-11-12 09:00:00 TS -13.7574 60.5424 main 765 732 _________P____ -1 -13.7574 60.5424 TC 8 234
1901313S10068 1902 45 SI MM NOT_NAMED 1901-11-12 12:00:00 TS -14.0000 60.2000 main 732 700 _________O____ -1 -14.0000 60.2000 TC 8 236
1901313S10068 1902 45 SI MM NOT_NAMED 1901-11-12 15:00:00 TS -14.2074 59.8499 main 696 665 _________P____ -1 -14.2074 59.8499 TC 8 239
1901313S10068 1902 45 SI MM NOT_NAMED 1901-11-12 18:00:00 TS -14.4000 59.5000 main 665 635 _________O____ -1 -14.4000 59.5000 TC 7 240
1901313S10068 1902 45 SI MM NOT_NAMED 1901-11-12 21:00:00 TS -14.5697 59.1946 main 635 604 _________P____ -1 -14.5697 59.1946 TC 8 239
1901313S10068 1902 45 SI MM NOT_NAMED 1901-11-13 00:00:00 TS -14.8000 58.8000 main 604 561 _________O____ -1 -14.8000 58.8000 TC 11 239
1901313S10068 1902 45 SI MM NOT_NAMED 1901-11-13 03:00:00 TS -15.1627 58.1876 main 550 503 _________P____ -1 -15.1627 58.1876 TC 15 237
1901313S10068 1902 45 SI MM NOT_NAMED 1901-11-13 06:00:00 TS -15.6000 57.5000 main 503 461 _________O____ -1 -15.6000 57.5000 TC 15 235
1901313S10068 1902 45 SI MM NOT_NAMED 1901-11-13 09:00:00 TS -16.0423 56.8848 main 463 422 _________P____ -1 -16.0423 56.8848 TC 15 232
1901313S10068 1902 45 SI MM NOT_NAMED 1901-11-13 12:00:00 TS -16.5000 56.3000 main 422 395 _________O____ -1 -16.5000 56.3000 TC 14 231
1901313S10068 1902 45 SI MM NOT_NAMED 1901-11-13 15:00:00 TS -16.9498 55.7347 main 405 380 _________P____ -1 -16.9498 55.7347 TC 14 229
1901313S10068 1902 45 SI MM NOT_NAMED 1901-11-13 18:00:00 TS -17.4000 55.2000 main 387 363 _________O____ -1 -17.4000 55.2000 TC 13 229
1901313S10068 1902 45 SI MM NOT_NAMED 1901-11-13 21:00:00 TS -17.8199 54.6845 main 363 323 _________P____ -1 -17.8199 54.6845 TC 13 227
1901313S10068 1902 45 SI MM NOT_NAMED 1901-11-14 00:00:00 TS -18.3000 54.2000 main 323 288 _________O____ -1 -18.3000 54.2000 TC 14 221
1901313S10068 1902 45 SI MM NOT_NAMED 1901-11-14 03:00:00 TS -18.8975 53.7126 main 288 259 _________P____ -1 -18.8975 53.7126 TC 16 213
1901313S10068 1902 45 SI MM NOT_NAMED 1901-11-14 06:00:00 TS -19.6000 53.3000 main 259 245 _________O____ -1 -19.6000 53.3000 TC 16 205
1901313S10068 1902 45 SI MM NOT_NAMED 1901-11-14 09:00:00 TS -20.3774 52.9678 main 241 241 _________P____ -1 -20.3774 52.9678 TC 17 196
1901313S10068 1902 45 SI MM NOT_NAMED 1901-11-14 12:00:00 TS -21.2000 52.8000 main 249 249 _________O____ -1 -21.2000 52.8000 TC 17 186
1901313S10068 1902 45 SI MM NOT_NAMED 1901-11-14 15:00:00 TS -22.0222 52.7950 main 267 267 _________P____ -1 -22.0222 52.7950 TC 16 173
1901313S10068 1902 45 SI MM NOT_NAMED 1901-11-14 18:00:00 TS -22.8000 53.0000 main 290 290 _________O____ -1 -22.8000 53.0000 TC 16 160
1901313S10068 1902 45 SI MM NOT_NAMED 1901-11-14 21:00:00 TS -23.5024 53.3673 main 314 314 _________P____ -1 -23.5024 53.3673 TC 15 148
1901313S10068 1902 45 SI MM NOT_NAMED 1901-11-15 00:00:00 TS -24.1000 53.9000 main 344 344 _________O____ -1 -24.1000 53.9000 TC 15 136
1901313S10068 1902 45 SI MM NOT_NAMED 1901-11-15 03:00:00 TS -24.6024 54.5127 main 374 374 _________P____ -1 -24.6024 54.5127 TC 15 127
1901313S10068 1902 45 SI MM NOT_NAMED 1901-11-15 06:00:00 TS -25.0000 55.2000 main 404 403 _________O____ -1 -25.0000 55.2000 TC 14 120
1901313S10068 1902 45 SI MM NOT_NAMED 1901-11-15 09:00:00 TS -25.3297 55.8856 main 436 436 _________P____ -1 -25.3297 55.8856 TC 14 115
1901313S10068 1902 45 SI MM NOT_NAMED 1901-11-15 12:00:00 TS -25.6000 56.6000 main 480 480 _________O____ -1 -25.6000 56.6000 TC 14 112
1901313S10068 1902 45 SI MM NOT_NAMED 1901-11-15 15:00:00 TS -25.8647 57.3428 main 531 531 _________P____ -1 -25.8647 57.3428 TC 14 110
1901313S10068 1902 45 SI MM NOT_NAMED 1901-11-15 18:00:00 TS -26.1000 58.1000 main 583 583 _________O____ -1 -26.1000 58.1000 TC 14 108
1901313S10068 1902 45 SI MM NOT_NAMED 1901-11-15 21:00:00 TS -26.3082 58.8520 main 641 641 _________P____ -1 -26.3082 58.8520 TC 14 107
1901313S10068 1902 45 SI MM NOT_NAMED 1901-11-16 00:00:00 TS -26.5000 59.6000 main 697 _________O____ -1 -26.5000 59.6000 TC 14 106

IBTrACS Databaseについて

本データベースは、米国NOAAが公開する1842年以降の世界の熱帯低気圧のベストトラックデータアーカイブInternational Best Track Archive for Climate Stewardship (IBTrACS)を、ウェブで閲覧しやすい形式に変換したものです。

最終更新日:2021-10-21